Time;durP1;ratioP1;P1;durP2;ratioP2;P2;SDS_P1;SDS_P2;PMS_P1;PMS_P2;Temp;Humidity;BMP_temperature;BMP_pressure;BME280_temperature;BME280_humidity;BME280_pressure;Samples;Min_cycle;Max_cycle;Signal;HPM_P1;HPM_P2
2022/03/22 00:00:09;;;;;;;6.05;4.25;;;25.00;99.90;;;;;;5023500;28;20032;-64
2022/03/22 00:02:37;;;;;;;6.43;2.28;;;25.20;99.90;;;;;;5025199;28;20033;-68
2022/03/22 00:05:04;;;;;;;6.20;1.65;;;25.30;99.90;;;;;;5016439;28;20068;-64
2022/03/22 00:07:32;;;;;;;5.60;2.05;;;25.30;99.90;;;;;;5022070;28;20026;-66
2022/03/22 00:09:59;;;;;;;6.35;2.42;;;25.40;99.90;;;;;;5021288;28;20045;-68
2022/03/22 00:12:26;;;;;;;3.97;1.42;;;25.60;99.90;;;;;;5023843;28;20648;-67
2022/03/22 00:14:53;;;;;;;5.47;1.92;;;25.70;99.90;;;;;;5022274;28;20037;-68
2022/03/22 00:17:21;;;;;;;3.78;1.70;;;25.80;99.90;;;;;;5024012;28;20022;-67
2022/03/22 00:19:48;;;;;;;5.18;2.00;;;25.80;99.90;;;;;;5021822;28;20094;-65
2022/03/22 00:22:16;;;;;;;5.13;2.25;;;26.00;99.90;;;;;;5023420;28;20018;-73
2022/03/22 00:24:43;;;;;;;5.20;1.88;;;26.00;99.90;;;;;;5020237;28;20488;-68
2022/03/22 00:27:10;;;;;;;6.53;2.65;;;26.20;99.90;;;;;;5021864;28;20029;-69
2022/03/22 00:29:36;;;;;;;5.80;2.00;;;26.20;99.90;;;;;;5017569;28;20420;-71
2022/03/22 00:32:06;;;;;;;4.97;1.80;;;26.50;99.90;;;;;;5018019;28;20148;-72
2022/03/22 00:34:33;;;;;;;5.40;2.05;;;26.60;99.90;;;;;;5015372;28;20036;-73
2022/03/22 00:37:00;;;;;;;6.72;2.10;;;26.80;99.90;;;;;;5015454;28;20092;-65
2022/03/22 00:39:27;;;;;;;6.38;1.90;;;26.90;99.90;;;;;;5018761;28;20313;-66
2022/03/22 00:41:54;;;;;;;4.55;2.33;;;27.00;99.90;;;;;;5016132;28;20416;-67
2022/03/22 00:44:22;;;;;;;3.75;1.90;;;27.00;99.90;;;;;;5018693;28;20366;-67
2022/03/22 00:46:50;;;;;;;4.22;2.30;;;27.20;99.90;;;;;;5020088;28;20049;-71
2022/03/22 00:49:17;;;;;;;3.88;1.90;;;27.30;99.90;;;;;;5000719;28;20046;-71
2022/03/22 00:51:44;;;;;;;7.97;2.10;;;27.40;99.90;;;;;;5023266;28;20013;-67
2022/03/22 00:54:11;;;;;;;4.57;2.10;;;27.70;99.90;;;;;;5021990;28;20036;-68
2022/03/22 00:56:39;;;;;;;5.32;2.03;;;28.00;99.90;;;;;;5018624;28;20029;-64
2022/03/22 01:01:51;;;;;;;5.32;2.15;;;28.30;99.90;;;;;;5023157;28;20060;-70
2022/03/22 01:04:18;;;;;;;4.95;2.67;;;28.20;99.90;;;;;;5019307;28;20038;-68
2022/03/22 01:06:45;;;;;;;6.45;2.95;;;28.30;99.90;;;;;;5025761;28;20029;-67
2022/03/22 01:09:12;;;;;;;5.82;2.45;;;28.40;99.90;;;;;;5024219;28;20026;-67
2022/03/22 01:11:39;;;;;;;3.97;2.72;;;28.50;99.90;;;;;;5023535;28;20029;-70
2022/03/22 01:14:07;;;;;;;10.68;4.05;;;28.40;99.90;;;;;;5022265;28;20014;-69
2022/03/22 01:16:34;;;;;;;6.15;3.75;;;28.50;99.90;;;;;;5020866;28;20026;-68
2022/03/22 01:19:01;;;;;;;7.57;3.65;;;28.80;99.90;;;;;;5020784;28;20029;-64
2022/03/22 01:21:28;;;;;;;10.18;3.92;;;29.00;99.90;;;;;;5021272;28;20049;-67
2022/03/22 01:23:55;;;;;;;7.13;3.22;;;29.30;98.70;;;;;;5024368;28;20372;-67
2022/03/22 01:26:22;;;;;;;5.18;3.17;;;29.40;99.00;;;;;;5019441;28;20038;-66
2022/03/22 01:28:49;;;;;;;5.00;3.08;;;29.50;98.90;;;;;;5022149;28;20024;-65
2022/03/22 01:31:17;;;;;;;7.22;3.13;;;29.60;99.30;;;;;;5024878;28;20530;-66
2022/03/22 01:33:44;;;;;;;9.27;3.70;;;30.00;98.50;;;;;;5020693;28;20022;-68
2022/03/22 01:36:11;;;;;;;7.43;2.58;;;30.00;98.50;;;;;;5018461;28;20040;-66
2022/03/22 01:38:38;;;;;;;6.05;2.90;;;30.00;98.70;;;;;;5016007;28;20050;-69
2022/03/22 01:41:05;;;;;;;6.95;3.30;;;30.30;98.30;;;;;;5019640;28;20469;-68
2022/03/22 01:43:32;;;;;;;10.75;7.45;;;30.50;98.20;;;;;;5026319;28;20072;-67
2022/03/22 01:45:59;;;;;;;8.05;4.43;;;30.60;98.10;;;;;;5012968;28;20026;-68
2022/03/22 01:48:25;;;;;;;9.05;3.67;;;30.90;97.90;;;;;;5022810;28;20140;-67
2022/03/22 01:50:54;;;;;;;7.75;3.65;;;31.20;96.80;;;;;;5026712;28;20030;-64
2022/03/22 01:53:23;;;;;;;6.65;3.05;;;31.10;96.10;;;;;;5027709;28;20026;-67
2022/03/22 01:55:50;;;;;;;7.78;3.28;;;30.80;96.50;;;;;;5020219;28;20033;-66
2022/03/22 01:58:17;;;;;;;6.45;3.70;;;30.80;97.40;;;;;;5018824;28;20104;-66
2022/03/22 02:00:43;;;;;;;6.05;4.35;;;30.80;97.60;;;;;;5026174;28;20053;-63
2022/03/22 02:05:58;;;;;;;8.10;3.80;;;31.50;96.70;;;;;;5021515;28;20068;-67
2022/03/22 02:08:33;;;;;;;7.55;3.20;;;31.60;95.80;;;;;;5029317;28;20051;-67
2022/03/22 02:11:01;;;;;;;8.05;4.03;;;31.80;95.90;;;;;;5020195;28;20053;-66
2022/03/22 02:13:29;;;;;;;8.93;4.05;;;31.80;95.70;;;;;;5024500;28;20025;-67
2022/03/22 02:15:59;;;;;;;4.95;2.95;;;31.90;95.50;;;;;;5019914;28;20121;-64
2022/03/22 02:18:27;;;;;;;7.38;4.07;;;31.90;95.50;;;;;;5020755;28;20365;-66
2022/03/22 02:20:55;;;;;;;8.27;3.80;;;31.90;95.60;;;;;;5021465;28;20030;-66
2022/03/22 02:23:26;;;;;;;9.20;4.30;;;32.10;95.20;;;;;;5013459;28;20080;-64
2022/03/22 02:25:53;;;;;;;8.20;4.20;;;32.20;95.00;;;;;;5023736;28;20062;-68
2022/03/22 02:28:21;;;;;;;6.35;3.13;;;32.50;95.10;;;;;;4995203;28;20037;-71
2022/03/22 02:30:50;;;;;;;5.00;3.20;;;32.90;93.00;;;;;;5025594;28;20510;-71
2022/03/22 02:33:17;;;;;;;3.85;2.75;;;33.00;93.70;;;;;;5022526;28;20087;-70
2022/03/22 02:35:46;;;;;;;5.60;3.20;;;33.10;93.40;;;;;;5017757;28;20073;-67
2022/03/22 02:38:13;;;;;;;5.95;2.92;;;33.30;91.40;;;;;;5010411;28;20054;-68
2022/03/22 02:40:41;;;;;;;7.25;3.20;;;33.20;92.90;;;;;;5016650;28;20064;-68
2022/03/22 02:43:08;;;;;;;6.47;3.40;;;33.30;92.30;;;;;;5012578;28;20029;-69
2022/03/22 02:45:35;;;;;;;8.88;3.75;;;33.40;92.50;;;;;;5019596;28;20060;-69
2022/03/22 02:48:03;;;;;;;5.47;3.45;;;33.60;91.50;;;;;;5023106;28;20483;-67
2022/03/22 02:50:30;;;;;;;5.10;3.08;;;33.80;91.30;;;;;;5022467;28;20026;-69
2022/03/22 02:52:57;;;;;;;6.10;2.92;;;33.80;91.40;;;;;;5029901;28;20014;-69
2022/03/22 02:55:24;;;;;;;7.15;3.35;;;33.80;90.90;;;;;;5026568;28;20029;-68
2022/03/22 02:57:51;;;;;;;8.13;3.30;;;33.90;91.70;;;;;;5019547;28;20388;-68
2022/03/22 03:00:18;;;;;;;8.77;3.65;;;34.00;90.20;;;;;;5014505;28;20083;-67
2022/03/22 03:02:49;;;;;;;5.50;3.38;;;34.20;89.80;;;;;;5017256;28;20028;-68
2022/03/22 03:05:17;;;;;;;6.47;3.90;;;34.10;87.40;;;;;;5022235;28;20572;-68
2022/03/22 03:07:45;;;;;;;7.55;3.47;;;34.00;88.30;;;;;;5012704;28;20083;-67
2022/03/22 03:10:12;;;;;;;8.57;3.58;;;34.30;87.50;;;;;;5015345;28;20052;-68
2022/03/22 03:12:39;;;;;;;7.85;2.85;;;34.50;85.80;;;;;;5003479;28;20463;-67
2022/03/22 03:15:08;;;;;;;6.53;3.20;;;34.60;83.40;;;;;;5015930;28;20044;-68
2022/03/22 03:17:36;;;;;;;4.40;2.58;;;34.50;84.60;;;;;;5017442;28;20033;-68
2022/03/22 03:20:05;;;;;;;7.40;3.10;;;34.50;86.80;;;;;;5019123;28;20078;-69
2022/03/22 03:22:32;;;;;;;4.95;3.10;;;34.50;85.80;;;;;;5019646;28;20030;-69
2022/03/22 03:25:00;;;;;;;3.70;2.85;;;34.50;84.50;;;;;;5019503;28;20029;-68
2022/03/22 03:27:27;;;;;;;4.90;2.50;;;34.40;85.00;;;;;;5012315;28;20546;-67
2022/03/22 03:29:53;;;;;;;4.45;3.08;;;34.50;84.40;;;;;;5021599;28;20021;-69
2022/03/22 03:32:20;;;;;;;5.72;3.20;;;34.70;82.40;;;;;;5017613;28;20051;-67
2022/03/22 03:34:47;;;;;;;8.60;3.72;;;34.90;82.20;;;;;;5012810;28;20065;-72
2022/03/22 03:37:14;;;;;;;6.97;3.05;;;35.00;81.70;;;;;;5019288;28;20053;-67
2022/03/22 03:39:41;;;;;;;4.05;2.72;;;35.10;82.80;;;;;;5019418;28;20094;-67
2022/03/22 03:42:09;;;;;;;5.20;2.42;;;35.20;81.00;;;;;;5014051;28;20037;-67
2022/03/22 03:47:23;;;;;;;7.55;3.05;;;35.40;80.50;;;;;;5020112;28;20125;-71
2022/03/22 03:50:01;;;;;;;5.95;3.78;;;35.50;78.80;;;;;;5011087;28;20017;-68
2022/03/22 03:52:33;;;;;;;7.88;3.30;;;35.50;79.90;;;;;;5022998;28;20033;-72
2022/03/22 03:55:03;;;;;;;5.53;3.33;;;35.60;79.40;;;;;;5015144;28;20072;-67
2022/03/22 03:57:30;;;;;;;4.40;2.88;;;35.50;77.20;;;;;;5019183;28;20400;-69
2022/03/22 03:59:57;;;;;;;5.10;2.95;;;35.60;76.70;;;;;;5021366;28;20492;-71
2022/03/22 04:02:24;;;;;;;4.45;3.10;;;35.70;78.00;;;;;;5020748;28;20029;-68
2022/03/22 04:04:52;;;;;;;4.53;2.97;;;35.70;75.30;;;;;;5017143;28;20033;-68
2022/03/22 04:07:26;;;;;;;4.00;2.90;;;35.70;75.80;;;;;;5021021;28;20030;-72
2022/03/22 04:09:54;;;;;;;5.90;2.63;;;35.80;74.90;;;;;;5016759;28;20109;-68
2022/03/22 04:12:24;;;;;;;4.15;3.05;;;35.80;76.00;;;;;;5018080;28;20033;-68
2022/03/22 04:14:52;;;;;;;3.88;2.70;;;35.80;73.70;;;;;;5013340;28;20029;-67
2022/03/22 04:17:20;;;;;;;4.53;4.13;;;35.80;71.00;;;;;;5016623;28;20088;-70
2022/03/22 04:19:48;;;;;;;3.58;2.70;;;35.80;69.00;;;;;;5002403;28;20037;-67
2022/03/22 04:22:16;;;;;;;4.20;2.60;;;35.70;68.30;;;;;;5021551;28;20447;-66
2022/03/22 04:24:43;;;;;;;4.85;3.10;;;35.40;71.20;;;;;;5016447;28;20057;-65
2022/03/22 04:32:43;;;;;;;4.78;3.03;;;35.70;69.50;;;;;;5026855;28;20075;-65
2022/03/22 04:35:23;;;;;;;4.13;2.83;;;35.80;68.30;;;;;;5006453;28;20034;-69
2022/03/22 04:37:55;;;;;;;4.35;3.13;;;36.00;66.00;;;;;;5024006;28;20050;-67
2022/03/22 04:40:23;;;;;;;6.57;3.20;;;35.70;67.00;;;;;;5023973;28;20473;-65
2022/03/22 04:42:52;;;;;;;4.85;3.20;;;35.50;67.70;;;;;;5027826;28;20026;-66
2022/03/22 04:45:19;;;;;;;4.97;3.30;;;35.40;67.50;;;;;;5005390;28;20034;-66
2022/03/22 04:47:47;;;;;;;3.83;3.10;;;35.60;66.40;;;;;;5022142;28;20464;-70
2022/03/22 04:50:16;;;;;;;4.13;3.03;;;35.70;66.50;;;;;;5007853;28;20026;-70
2022/03/22 04:58:13;;;;;;;7.55;3.58;;;35.90;64.60;;;;;;5014964;28;20056;-65
2022/03/22 05:00:40;;;;;;;4.82;3.67;;;36.00;64.70;;;;;;5021891;28;20017;-67
2022/03/22 05:03:10;;;;;;;5.20;3.53;;;35.90;65.10;;;;;;5016922;28;20284;-66
2022/03/22 05:08:23;;;;;;;5.05;2.90;;;36.00;66.30;;;;;;5012189;28;20041;-73
2022/03/22 05:10:50;;;;;;;5.18;3.45;;;35.80;67.20;;;;;;5010884;28;20033;-68
2022/03/22 05:13:17;;;;;;;6.38;3.10;;;35.90;68.30;;;;;;5017499;28;20412;-69
2022/03/22 05:15:44;;;;;;;5.15;3.42;;;35.80;66.90;;;;;;5019936;28;20179;-69
2022/03/22 05:18:13;;;;;;;4.78;3.75;;;35.70;66.80;;;;;;5015822;28;20160;-70
2022/03/22 05:20:40;;;;;;;6.88;3.85;;;35.70;66.60;;;;;;5008322;28;20427;-69
2022/03/22 05:23:07;;;;;;;4.68;3.10;;;35.70;66.50;;;;;;5017746;28;20056;-69
2022/03/22 05:25:34;;;;;;;7.45;3.60;;;35.50;65.80;;;;;;5015272;28;20076;-70
2022/03/22 05:28:03;;;;;;;8.18;3.65;;;35.50;67.60;;;;;;5018818;28;20030;-72
2022/03/22 05:30:32;;;;;;;4.57;2.90;;;35.50;67.10;;;;;;5024923;28;20419;-69
2022/03/22 05:33:00;;;;;;;4.43;3.50;;;35.60;68.60;;;;;;5025905;28;20033;-68
2022/03/22 05:35:27;;;;;;;5.28;3.33;;;35.80;68.40;;;;;;5026393;28;20032;-65
2022/03/22 05:37:54;;;;;;;8.77;5.65;;;35.90;68.10;;;;;;5023937;28;20514;-67
2022/03/22 05:40:21;;;;;;;6.38;3.35;;;36.10;66.10;;;;;;5024921;28;20437;-67
2022/03/22 05:42:49;;;;;;;5.28;3.42;;;35.90;65.80;;;;;;5025154;28;20108;-67
2022/03/22 05:45:16;;;;;;;3.75;2.90;;;36.00;66.40;;;;;;5025205;28;20088;-65
2022/03/22 05:47:44;;;;;;;6.35;3.70;;;35.90;64.90;;;;;;5026845;28;20685;-68
2022/03/22 05:50:11;;;;;;;5.20;3.20;;;35.90;64.20;;;;;;5028076;28;20041;-66
2022/03/22 05:52:49;;;;;;;5.00;3.20;;;35.70;64.20;;;;;;5026293;28;20045;-68
2022/03/22 05:55:16;;;;;;;7.30;2.95;;;35.60;64.60;;;;;;5032339;28;20112;-68
2022/03/22 05:57:43;;;;;;;4.35;2.85;;;35.30;64.60;;;;;;5011117;28;20028;-68
2022/03/22 06:00:12;;;;;;;6.25;5.40;;;35.30;65.40;;;;;;5006602;28;20092;-67
2022/03/22 06:02:42;;;;;;;7.05;5.70;;;35.40;65.40;;;;;;5024596;28;20030;-68
2022/03/22 06:05:16;;;;;;;7.88;3.63;;;35.50;66.00;;;;;;5025191;28;20464;-67
2022/03/22 06:07:45;;;;;;;4.45;3.22;;;35.40;65.70;;;;;;5029342;28;20037;-69
2022/03/22 06:10:13;;;;;;;7.32;3.45;;;35.30;65.90;;;;;;5024762;28;20539;-68
2022/03/22 06:12:44;;;;;;;6.50;4.25;;;35.30;65.20;;;;;;5023977;28;20484;-68
2022/03/22 06:15:19;;;;;;;6.53;4.53;;;35.30;65.00;;;;;;5023183;28;20045;-67
2022/03/22 06:17:51;;;;;;;12.60;11.00;;;35.50;65.80;;;;;;5023092;28;20025;-68
2022/03/22 06:20:20;;;;;;;19.23;17.20;;;35.50;65.10;;;;;;5022830;28;20030;-69
2022/03/22 06:22:48;;;;;;;6.63;5.32;;;35.20;65.30;;;;;;5027182;28;21501;-68
2022/03/22 06:25:16;;;;;;;9.02;8.13;;;35.40;64.70;;;;;;5021525;28;20302;-67
2022/03/22 06:27:46;;;;;;;4.80;3.47;;;35.80;64.50;;;;;;5025689;28;20067;-68
2022/03/22 06:30:15;;;;;;;7.47;2.90;;;36.10;63.50;;;;;;5022772;28;20024;-68
2022/03/22 06:32:54;;;;;;;6.00;3.30;;;35.90;63.20;;;;;;5024121;28;20053;-69
2022/03/22 06:35:27;;;;;;;3.20;2.90;;;35.90;64.00;;;;;;5027887;28;20041;-69
2022/03/22 06:37:54;;;;;;;5.70;3.03;;;35.90;63.90;;;;;;5021591;28;20563;-71
2022/03/22 06:40:23;;;;;;;3.60;3.10;;;36.00;62.90;;;;;;5023273;28;20030;-70
2022/03/22 06:42:51;;;;;;;3.78;2.45;;;36.10;62.20;;;;;;5022660;28;20148;-67
2022/03/22 06:45:18;;;;;;;5.10;3.13;;;36.50;62.00;;;;;;5022751;28;20416;-68
2022/03/22 06:47:46;;;;;;;5.95;5.18;;;36.60;61.30;;;;;;5021102;28;20076;-70
2022/03/22 06:50:15;;;;;;;11.13;9.77;;;37.00;61.50;;;;;;5022165;28;20022;-67
2022/03/22 06:52:42;;;;;;;14.18;12.75;;;37.00;61.50;;;;;;5022854;28;20029;-67
2022/03/22 06:55:11;;;;;;;8.77;7.65;;;36.90;61.50;;;;;;5022489;28;20120;-68
2022/03/22 06:57:39;;;;;;;8.93;6.15;;;36.80;61.00;;;;;;5021067;28;20067;-67
2022/03/22 07:00:09;;;;;;;4.93;3.45;;;36.50;61.60;;;;;;5021912;28;20032;-66
2022/03/22 07:02:38;;;;;;;5.82;3.22;;;36.30;61.80;;;;;;5022680;28;20096;-70
2022/03/22 07:05:06;;;;;;;3.60;3.05;;;36.10;62.30;;;;;;5021160;28;20110;-67
2022/03/22 07:07:33;;;;;;;4.13;3.13;;;35.80;61.90;;;;;;5021842;28;20029;-68
2022/03/22 07:10:00;;;;;;;4.35;3.80;;;35.30;62.70;;;;;;5021430;28;20064;-67
2022/03/22 07:12:27;;;;;;;3.63;3.25;;;35.00;62.70;;;;;;5021787;28;20518;-67
2022/03/22 07:14:54;;;;;;;4.85;3.80;;;34.90;63.30;;;;;;5021332;28;20373;-68
2022/03/22 07:17:21;;;;;;;5.78;4.13;;;34.70;63.90;;;;;;5022164;28;20022;-69
2022/03/22 07:19:48;;;;;;;10.43;7.35;;;34.40;64.70;;;;;;5021811;28;20036;-68
2022/03/22 07:22:15;;;;;;;7.28;3.55;;;33.80;67.50;;;;;;5022239;28;20114;-68
2022/03/22 07:24:42;;;;;;;14.52;11.57;;;33.70;71.40;;;;;;5020932;28;20392;-69
2022/03/22 07:27:09;;;;;;;10.73;9.23;;;33.80;72.80;;;;;;5019257;28;20033;-66
2022/03/22 07:29:36;;;;;;;14.38;12.93;;;33.80;73.80;;;;;;5023517;28;20601;-69
2022/03/22 07:32:04;;;;;;;3.50;2.95;;;33.60;74.50;;;;;;5025052;28;20084;-66
2022/03/22 07:34:31;;;;;;;6.75;3.40;;;33.00;76.40;;;;;;5026823;28;20018;-68
2022/03/22 07:36:58;;;;;;;7.47;3.90;;;32.80;77.60;;;;;;5025685;28;20124;-68
2022/03/22 07:39:27;;;;;;;3.45;2.88;;;32.80;78.20;;;;;;5023982;28;20033;-69
2022/03/22 07:41:54;;;;;;;4.65;2.60;;;32.60;79.00;;;;;;5024370;28;20028;-68
2022/03/22 07:44:21;;;;;;;7.45;3.28;;;32.50;79.50;;;;;;5023589;28;20021;-68
2022/03/22 07:46:48;;;;;;;5.88;3.25;;;32.10;81.40;;;;;;5023417;28;20056;-66
2022/03/22 07:54:46;;;;;;;3.88;2.72;;;30.60;87.60;;;;;;5023800;28;20090;-66
2022/03/22 07:57:13;;;;;;;6.38;4.65;;;30.10;90.00;;;;;;5022857;28;20416;-68
2022/03/22 07:59:40;;;;;;;5.57;4.05;;;29.70;91.30;;;;;;5021700;28;20033;-67
2022/03/22 08:02:10;;;;;;;6.63;4.43;;;29.50;92.30;;;;;;5028204;28;20554;-67
2022/03/22 08:04:37;;;;;;;7.63;3.05;;;29.20;93.20;;;;;;5027617;28;20061;-67
2022/03/22 08:07:04;;;;;;;4.82;2.97;;;29.10;94.10;;;;;;5022340;28;20108;-69
2022/03/22 08:09:31;;;;;;;3.95;2.88;;;28.80;95.30;;;;;;5002409;28;20087;-67
2022/03/22 08:11:58;;;;;;;4.43;3.10;;;28.50;96.30;;;;;;5021473;28;20430;-65
2022/03/22 08:14:25;;;;;;;4.80;2.88;;;28.30;97.10;;;;;;5021452;28;20396;-64
2022/03/22 08:16:51;;;;;;;4.90;2.67;;;28.10;98.10;;;;;;5021638;28;20025;-67
2022/03/22 08:19:18;;;;;;;7.30;3.05;;;28.00;98.80;;;;;;5018715;28;20463;-66
2022/03/22 08:21:48;;;;;;;7.70;4.45;;;27.80;99.40;;;;;;5018018;28;20080;-68
2022/03/22 08:24:15;;;;;;;5.53;3.50;;;27.70;99.90;;;;;;5015733;28;20688;-68
2022/03/22 08:26:43;;;;;;;5.57;3.05;;;27.60;99.90;;;;;;5019654;28;20495;-65
2022/03/22 08:29:10;;;;;;;7.35;3.15;;;27.40;99.90;;;;;;5005834;28;20038;-65
2022/03/22 08:31:37;;;;;;;5.25;3.00;;;27.40;99.90;;;;;;4327453;28;10000450;-65
2022/03/22 08:34:04;;;;;;;5.78;2.83;;;27.30;99.90;;;;;;5015855;28;20032;-66
2022/03/22 08:36:33;;;;;;;6.38;3.78;;;27.20;99.90;;;;;;5017362;28;20818;-64
2022/03/22 08:39:00;;;;;;;5.22;2.95;;;27.00;99.90;;;;;;5019095;28;20639;-64
2022/03/22 08:41:28;;;;;;;4.70;3.00;;;26.90;99.90;;;;;;5017134;28;20032;-65
2022/03/22 08:43:55;;;;;;;5.03;2.90;;;26.80;99.90;;;;;;5016049;28;20032;-64
2022/03/22 08:46:24;;;;;;;4.20;3.22;;;26.70;99.90;;;;;;5019395;28;20891;-64
2022/03/22 08:48:55;;;;;;;5.90;3.10;;;26.60;99.90;;;;;;5018617;28;20029;-65
2022/03/22 08:51:25;;;;;;;6.45;3.20;;;26.40;99.90;;;;;;5018444;28;20021;-64
2022/03/22 08:53:54;;;;;;;6.25;2.60;;;26.40;99.90;;;;;;5016220;28;20029;-66
2022/03/22 08:56:24;;;;;;;5.78;3.00;;;26.30;99.90;;;;;;5022047;28;20025;-64
2022/03/22 08:58:54;;;;;;;5.82;3.45;;;26.20;99.90;;;;;;5017276;28;20033;-64
2022/03/22 09:01:25;;;;;;;4.78;3.33;;;26.10;99.90;;;;;;5020021;28;20037;-64
2022/03/22 09:06:39;;;;;;;4.10;3.17;;;26.00;99.90;;;;;;4936125;28;20040;-65
2022/03/22 09:09:09;;;;;;;7.40;3.40;;;25.90;99.90;;;;;;4932725;28;20174;-65
2022/03/22 09:11:39;;;;;;;4.75;2.75;;;25.80;99.90;;;;;;4938864;28;20035;-66
2022/03/22 09:14:06;;;;;;;4.50;3.03;;;25.80;99.90;;;;;;4938923;28;20102;-68
2022/03/22 09:16:34;;;;;;;9.10;4.25;;;25.70;99.90;;;;;;4938693;28;20031;-64
2022/03/22 09:19:01;;;;;;;11.95;6.03;;;25.60;99.90;;;;;;4942419;28;20719;-65
2022/03/22 09:21:29;;;;;;;5.78;4.35;;;25.60;99.90;;;;;;4938441;28;20052;-72
2022/03/22 09:23:56;;;;;;;7.40;4.63;;;25.60;99.90;;;;;;4937375;28;20035;-63
2022/03/22 09:26:24;;;;;;;6.70;4.30;;;25.60;99.90;;;;;;4939759;28;20121;-66
2022/03/22 09:28:52;;;;;;;5.32;3.90;;;25.50;99.90;;;;;;4942046;28;20032;-66
2022/03/22 09:31:22;;;;;;;5.63;4.55;;;25.40;99.90;;;;;;4944187;28;20479;-67
2022/03/22 09:33:51;;;;;;;4.85;3.88;;;25.40;99.90;;;;;;4942699;28;20035;-66
2022/03/22 09:36:18;;;;;;;6.00;3.53;;;25.30;99.90;;;;;;4939082;28;20502;-68
2022/03/22 09:38:46;;;;;;;6.97;5.47;;;25.20;99.90;;;;;;4942327;28;20068;-64
2022/03/22 09:41:17;;;;;;;6.93;4.07;;;25.10;99.90;;;;;;4936438;28;20455;-67
2022/03/22 09:43:49;;;;;;;7.85;4.72;;;25.10;99.90;;;;;;4976483;28;20899;-67
2022/03/22 09:46:22;;;;;;;5.63;3.92;;;25.10;99.90;;;;;;5024427;28;20034;-64
2022/03/22 09:48:49;;;;;;;10.98;4.63;;;25.10;99.90;;;;;;5020591;28;20040;-66
2022/03/22 09:54:03;;;;;;;6.25;3.78;;;25.00;99.90;;;;;;5022777;28;20064;-63
2022/03/22 09:56:30;;;;;;;7.10;4.13;;;25.00;99.90;;;;;;5023069;28;20451;-67
2022/03/22 09:59:03;;;;;;;7.45;3.70;;;25.00;99.90;;;;;;5022488;28;20033;-65
2022/03/22 10:01:32;;;;;;;6.28;4.30;;;24.90;99.90;;;;;;5023125;28;20465;-64
2022/03/22 10:04:07;;;;;;;5.20;3.83;;;24.90;99.90;;;;;;5025778;28;20047;-63
2022/03/22 10:06:35;;;;;;;7.18;4.05;;;24.80;99.90;;;;;;5019283;28;20026;-67
2022/03/22 10:09:08;;;;;;;7.95;4.45;;;24.80;99.90;;;;;;5020613;28;20211;-62
2022/03/22 10:11:42;;;;;;;10.10;5.20;;;24.70;99.90;;;;;;5019117;28;20489;-62
2022/03/22 10:14:11;;;;;;;9.55;5.20;;;24.70;99.90;;;;;;5021555;28;20072;-71
2022/03/22 10:16:50;;;;;;;9.68;4.78;;;24.60;99.90;;;;;;5018858;28;20035;-68
2022/03/22 10:19:22;;;;;;;10.18;6.47;;;24.40;99.90;;;;;;5026313;28;20040;-64
2022/03/22 10:21:50;;;;;;;13.30;6.60;;;24.40;99.90;;;;;;5023315;28;20044;-67
2022/03/22 10:24:17;;;;;;;14.13;7.55;;;24.30;99.90;;;;;;5000088;28;20053;-65
2022/03/22 10:26:46;;;;;;;15.05;7.68;;;24.20;99.90;;;;;;5020447;28;20057;-65
2022/03/22 10:29:15;;;;;;;11.98;7.07;;;24.10;99.90;;;;;;5022185;28;20041;-64
2022/03/22 10:31:44;;;;;;;12.80;6.75;;;24.10;99.90;;;;;;5022924;28;20107;-65
2022/03/22 10:34:15;;;;;;;9.65;5.93;;;24.00;99.90;;;;;;5019654;28;20040;-68
2022/03/22 10:36:42;;;;;;;9.60;5.73;;;23.90;99.90;;;;;;5067664;23;20057;-65
2022/03/22 10:39:12;;;;;;;10.25;5.95;;;23.90;99.90;;;;;;5018460;28;20308;-70
2022/03/22 10:41:41;;;;;;;9.23;5.40;;;23.90;99.90;;;;;;5018324;28;20026;-70
2022/03/22 10:44:11;;;;;;;7.97;4.53;;;23.90;99.90;;;;;;5017716;28;20025;-69
2022/03/22 10:46:39;;;;;;;8.77;4.68;;;23.90;99.90;;;;;;5017881;28;20108;-63
2022/03/22 10:49:20;;;;;;;7.45;4.22;;;23.80;99.90;;;;;;5018473;28;20029;-68
2022/03/22 10:51:50;;;;;;;8.43;4.68;;;23.80;99.90;;;;;;5020723;28;20538;-68
2022/03/22 10:54:19;;;;;;;6.97;4.10;;;23.80;99.90;;;;;;5017337;28;20026;-64
2022/03/22 10:56:52;;;;;;;6.05;3.80;;;23.70;99.90;;;;;;5016801;28;20049;-64
2022/03/22 10:59:25;;;;;;;7.25;4.03;;;23.60;99.90;;;;;;5015773;28;20595;-67
2022/03/22 11:01:55;;;;;;;7.03;4.72;;;23.60;99.90;;;;;;5019416;28;20037;-65
2022/03/22 11:04:24;;;;;;;7.25;4.05;;;23.50;99.90;;;;;;5016302;28;20496;-72
2022/03/22 11:06:53;;;;;;;5.13;4.07;;;23.40;99.90;;;;;;5017342;28;20430;-69
2022/03/22 11:09:25;;;;;;;5.78;4.45;;;23.30;99.90;;;;;;5019994;28;20061;-65
2022/03/22 11:11:55;;;;;;;7.72;4.43;;;23.30;99.90;;;;;;5020166;28;20080;-63
2022/03/22 11:14:22;;;;;;;6.78;4.53;;;23.30;99.90;;;;;;5014291;28;20021;-63
2022/03/22 11:16:50;;;;;;;10.13;4.95;;;23.20;99.90;;;;;;5019079;28;20473;-64
2022/03/22 11:19:18;;;;;;;8.30;5.47;;;23.20;99.90;;;;;;5018150;28;20101;-67
2022/03/22 11:21:50;;;;;;;14.75;6.75;;;23.20;99.90;;;;;;5016017;28;20835;-63
2022/03/22 11:24:27;;;;;;;13.20;8.73;;;23.20;99.90;;;;;;5016947;28;20098;-69
2022/03/22 11:26:56;;;;;;;11.43;6.70;;;23.20;99.90;;;;;;5020635;28;20467;-63
2022/03/22 11:29:27;;;;;;;15.27;7.70;;;23.30;99.90;;;;;;5020404;28;20134;-70
2022/03/22 11:34:44;;;;;;;7.22;4.75;;;23.30;99.90;;;;;;5011221;28;20495;-70
2022/03/22 11:37:11;;;;;;;7.47;4.13;;;23.20;99.90;;;;;;5003732;28;20045;-68
2022/03/22 11:42:25;;;;;;;6.03;3.75;;;23.20;99.90;;;;;;5001648;28;20527;-70
2022/03/22 11:45:00;;;;;;;7.95;4.43;;;23.20;99.90;;;;;;4993665;28;20032;-72
2022/03/22 11:47:40;;;;;;;5.75;3.90;;;23.20;99.90;;;;;;5002899;28;20041;-69
2022/03/22 11:50:10;;;;;;;5.60;4.13;;;23.20;99.90;;;;;;4995243;28;20026;-63
2022/03/22 11:52:41;;;;;;;6.65;4.03;;;23.10;99.90;;;;;;4994232;28;20029;-63
2022/03/22 11:55:13;;;;;;;5.57;3.80;;;23.00;99.90;;;;;;5003016;28;20034;-71
2022/03/22 11:58:03;;;;;;;5.20;3.72;;;23.10;99.90;;;;;;4993086;28;20272;-71
2022/03/22 12:00:46;;;;;;;7.47;3.90;;;23.00;99.90;;;;;;4991973;28;20040;-67
2022/03/22 12:03:19;;;;;;;4.47;3.40;;;23.00;99.90;;;;;;4994917;28;20022;-63
2022/03/22 12:05:47;;;;;;;6.47;4.10;;;22.90;99.90;;;;;;4999525;28;20022;-69
2022/03/22 12:08:16;;;;;;;7.35;4.22;;;22.90;99.90;;;;;;5001005;28;20037;-70
2022/03/22 12:10:48;;;;;;;5.05;3.55;;;22.90;99.90;;;;;;4999296;28;20088;-65
2022/03/22 12:13:15;;;;;;;9.00;3.90;;;22.80;99.90;;;;;;4993190;28;20036;-64
2022/03/22 12:15:43;;;;;;;8.07;4.10;;;22.80;99.90;;;;;;5001735;28;20096;-63
2022/03/22 12:18:11;;;;;;;6.25;3.40;;;22.80;99.90;;;;;;4990466;28;20469;-64
2022/03/22 12:20:39;;;;;;;5.88;3.30;;;22.80;99.90;;;;;;4996903;28;20086;-70
2022/03/22 12:23:06;;;;;;;6.75;3.63;;;22.80;99.90;;;;;;5006862;28;20120;-64
2022/03/22 12:25:36;;;;;;;7.68;4.35;;;22.80;99.90;;;;;;4993465;28;20029;-72
2022/03/22 12:28:09;;;;;;;6.00;4.00;;;22.70;99.90;;;;;;4995094;28;20018;-65
2022/03/22 12:30:41;;;;;;;6.40;3.97;;;22.70;99.90;;;;;;4994012;28;20026;-65
2022/03/22 12:33:18;;;;;;;5.55;3.83;;;22.70;99.90;;;;;;4998361;28;20029;-65
2022/03/22 12:35:47;;;;;;;5.55;3.95;;;22.70;99.90;;;;;;4998282;28;20026;-69
2022/03/22 12:38:15;;;;;;;7.13;4.15;;;22.70;99.90;;;;;;4998289;28;20541;-68
2022/03/22 12:40:43;;;;;;;6.20;3.80;;;22.60;99.90;;;;;;5000065;28;20026;-69
2022/03/22 12:43:13;;;;;;;8.15;3.83;;;22.60;99.90;;;;;;4994914;28;20116;-69
2022/03/22 12:45:49;;;;;;;6.90;3.85;;;22.50;99.90;;;;;;4990507;28;20034;-69
2022/03/22 12:48:17;;;;;;;5.57;3.85;;;22.60;99.90;;;;;;5003205;28;20030;-64
2022/03/22 12:50:44;;;;;;;4.65;3.60;;;22.50;99.90;;;;;;5002730;28;20026;-69
2022/03/22 12:53:11;;;;;;;5.80;3.72;;;22.50;99.90;;;;;;4997528;28;20018;-65
2022/03/22 12:55:42;;;;;;;6.30;3.70;;;22.50;99.90;;;;;;5007169;28;20037;-65
2022/03/22 12:58:10;;;;;;;6.60;3.72;;;22.50;99.90;;;;;;5000740;28;20030;-69
2022/03/22 13:00:39;;;;;;;7.75;3.83;;;22.40;99.90;;;;;;5002804;28;20500;-64
2022/03/22 13:03:24;;;;;;;7.78;4.07;;;22.40;99.90;;;;;;5001929;28;20049;-66
2022/03/22 13:05:51;;;;;;;6.10;3.67;;;22.30;99.90;;;;;;5008308;28;20033;-69
2022/03/22 13:16:59;;;;;;;8.50;4.03;;;22.30;99.90;;;;;;5004239;28;20403;-65
2022/03/22 13:19:32;;;;;;;5.43;3.33;;;22.30;99.90;;;;;;5003632;28;20508;-68
2022/03/22 13:22:00;;;;;;;7.97;3.90;;;22.20;99.90;;;;;;5009833;28;20057;-65
2022/03/22 13:24:28;;;;;;;6.75;3.63;;;22.20;99.90;;;;;;5008520;28;20161;-70
2022/03/22 13:26:58;;;;;;;5.40;3.92;;;22.20;99.90;;;;;;5001009;28;20022;-70
2022/03/22 13:29:36;;;;;;;4.65;3.50;;;22.20;99.90;;;;;;5005654;28;20115;-65
2022/03/22 13:32:05;;;;;;;5.45;3.63;;;22.10;99.90;;;;;;4996989;28;20317;-70
2022/03/22 13:34:35;;;;;;;5.78;3.60;;;22.20;99.90;;;;;;5001116;28;20376;-69
2022/03/22 13:37:14;;;;;;;5.82;3.50;;;22.10;99.90;;;;;;5007392;28;20512;-63
2022/03/22 13:40:05;;;;;;;7.82;3.88;;;22.10;99.90;;;;;;5000396;28;20053;-64